Time;durP1;ratioP1;P1;durP2;ratioP2;P2;SDS_P1;SDS_P2;PMS_P1;PMS_P2;Temp;Humidity;BMP_temperature;BMP_pressure;BME280_temperature;BME280_humidity;BME280_pressure;Samples;Min_cycle;Max_cycle;Signal;HPM_P1;HPM_P2
2023/02/28 00:00:00;;;;;;;;;17.00;14.50;;;;;4.38;49.03;101929.25;5096309;27;45710;-77
2023/02/28 00:02:25;;;;;;;;;23.75;19.00;;;;;4.28;49.18;101914.78;5096300;27;45704;-76
2023/02/28 00:04:52;;;;;;;;;17.50;16.75;;;;;4.33;49.42;101928.50;5096046;27;46315;-76
2023/02/28 00:07:19;;;;;;;;;17.25;14.75;;;;;4.27;49.33;101920.88;5094479;27;46337;-76
2023/02/28 00:09:44;;;;;;;;;19.25;19.25;;;;;4.30;49.89;101929.44;5096225;27;45608;-76
2023/02/28 00:12:14;;;;;;;;;17.00;15.50;;;;;4.29;49.25;101927.75;5096145;27;45689;-77
2023/02/28 00:14:40;;;;;;;;;20.25;20.25;;;;;3.99;49.60;101880.06;5094743;27;45531;-76
2023/02/28 00:17:05;;;;;;;;;16.00;15.00;;;;;4.26;49.75;101927.81;5096011;27;45454;-77
2023/02/28 00:19:30;;;;;;;;;17.50;15.75;;;;;4.23;49.65;101927.88;5095674;27;45455;-78
2023/02/28 00:21:56;;;;;;;;;20.75;16.00;;;;;4.21;49.58;101922.72;5096020;27;45423;-77
2023/02/28 00:24:21;;;;;;;;;17.50;15.75;;;;;4.22;49.63;101931.34;5095643;27;45516;-77
2023/02/28 20:23:50;;;;;;;;;14.00;11.75;;;;;6.41;36.21;101930.41;5059882;27;72978;-77
2023/02/28 20:26:18;;;;;;;;;14.75;14.25;;;;;6.41;36.64;101936.47;5095149;27;45674;-77
2023/02/28 20:28:44;;;;;;;;;18.00;15.75;;;;;6.41;36.29;101936.47;5070644;27;45778;-76
2023/02/28 20:31:21;;;;;;;;;19.00;16.25;;;;;6.39;36.87;101930.44;5093827;27;47304;-76
2023/02/28 20:33:47;;;;;;;;;15.25;13.00;;;;;6.37;36.89;101939.22;5092659;27;46120;-77
2023/02/28 20:36:14;;;;;;;;;15.25;13.50;;;;;6.36;36.69;101940.13;5091779;27;45738;-76
2023/02/28 20:38:40;;;;;;;;;16.00;14.75;;;;;6.32;37.15;101941.94;5087181;27;45889;-76
2023/02/28 20:41:07;;;;;;;;;13.50;12.50;;;;;6.35;36.83;101936.66;5093268;27;48559;-76
2023/02/28 20:43:32;;;;;;;;;15.00;13.00;;;;;6.27;37.01;101929.09;5065537;27;47971;-76
2023/02/28 20:46:02;;;;;;;;;14.50;13.00;;;;;6.31;37.19;101945.47;5093683;27;45785;-76
2023/02/28 20:48:29;;;;;;;;;15.75;13.50;;;;;6.26;36.86;101934.38;5086529;27;45994;-79
2023/02/28 20:50:56;;;;;;;;;16.00;15.75;;;;;6.30;36.92;101943.78;5085068;27;46577;-77
2023/02/28 20:53:23;;;;;;;;;12.00;10.00;;;;;6.29;37.05;101944.66;5091837;27;47026;-77
2023/02/28 20:55:55;;;;;;;;;15.75;15.25;;;;;6.26;36.94;101945.59;5089899;27;45968;-77
2023/02/28 20:58:21;;;;;;;;;22.25;17.25;;;;;6.19;37.10;101943.25;5089638;27;45714;-76
2023/02/28 21:00:46;;;;;;;;;20.75;17.50;;;;;6.19;37.62;101953.66;5091108;27;46309;-77
2023/02/28 21:03:12;;;;;;;;;19.50;16.75;;;;;6.10;37.76;101944.38;5089556;27;46502;-77
2023/02/28 21:05:37;;;;;;;;;18.50;15.25;;;;;6.12;37.71;101960.81;5088856;27;45659;-77
2023/02/28 21:08:03;;;;;;;;;20.00;19.00;;;;;6.08;37.40;101959.19;5089372;27;46207;-79
2023/02/28 21:10:30;;;;;;;;;26.00;20.75;;;;;6.06;37.58;101960.13;5092364;27;46569;-78
2023/02/28 21:12:56;;;;;;;;;21.50;18.25;;;;;6.03;37.60;101958.50;5089924;27;46167;-76
2023/02/28 21:15:25;;;;;;;;;21.00;17.25;;;;;6.01;37.73;101956.81;5091327;27;45862;-75
2023/02/28 21:17:50;;;;;;;;;14.50;14.50;;;;;5.99;37.92;101956.88;5096231;27;45817;-78
2023/02/28 21:20:20;;;;;;;;;18.75;18.00;;;;;5.88;37.79;101954.59;5094314;27;47373;-77
2023/02/28 21:22:49;;;;;;;;;18.00;17.50;;;;;5.82;37.95;101948.72;5089911;27;46119;-77
2023/02/28 21:25:14;;;;;;;;;19.75;16.00;;;;;5.88;37.82;101962.38;5070054;28;45793;-76
2023/02/28 21:27:41;;;;;;;;;14.25;12.75;;;;;5.85;37.85;101966.81;5066039;27;45705;-76
2023/02/28 21:30:08;;;;;;;;;15.75;13.25;;;;;5.80;38.28;101956.53;5089187;27;46877;-78
2023/02/28 21:32:33;;;;;;;;;18.00;15.25;;;;;5.77;38.33;101967.06;5089665;27;46050;-78
2023/02/28 21:34:58;;;;;;;;;18.25;17.25;;;;;5.74;38.41;101964.53;5092837;27;46026;-78
2023/02/28 21:37:24;;;;;;;;;19.00;18.00;;;;;5.67;38.36;101962.16;5090299;27;45983;-78
2023/02/28 21:39:52;;;;;;;;;15.25;9.50;;;;;5.74;38.88;101976.66;5091147;27;46825;-75
2023/02/28 21:42:17;;;;;;;;;21.50;18.75;;;;;5.71;38.59;101972.44;5090327;27;47229;-76
2023/02/28 21:44:43;;;;;;;;;17.00;17.00;;;;;5.67;38.62;101975.16;5110478;27;45753;-79
2023/02/28 21:47:08;;;;;;;;;21.75;17.00;;;;;5.63;39.00;101971.78;5088623;27;46049;-77
2023/02/28 21:49:36;;;;;;;;;19.00;15.75;;;;;5.51;39.15;101950.50;5067206;27;46543;-76
2023/02/28 21:52:01;;;;;;;;;20.25;16.75;;;;;5.58;38.86;101968.47;5096133;27;46296;-80
2023/02/28 21:54:27;;;;;;;;;18.00;17.00;;;;;5.56;39.06;101964.22;5077342;27;45613;-77
2023/02/28 21:56:54;;;;;;;;;19.00;15.50;;;;;5.52;39.31;101965.19;5067607;27;46374;-75
2023/02/28 21:59:19;;;;;;;;;12.50;11.00;;;;;5.47;39.65;101979.16;5081533;27;46996;-76
2023/02/28 22:01:47;;;;;;;;;14.50;13.25;;;;;5.44;39.61;101966.28;5093385;27;46999;-76
2023/02/28 22:04:21;;;;;;;;;16.75;15.00;;;;;5.35;39.42;101955.25;5094096;27;45655;-76
2023/02/28 22:06:56;;;;;;;;;19.50;17.50;;;;;5.29;39.42;101947.66;5103803;27;45864;-76
2023/02/28 22:09:22;;;;;;;;;21.25;18.50;;;;;5.29;39.96;101963.25;5094120;27;46525;-76
2023/02/28 22:11:48;;;;;;;;;22.00;17.00;;;;;5.30;40.10;101970.97;5090974;27;46190;-75
2023/02/28 22:14:15;;;;;;;;;19.75;17.50;;;;;5.21;40.14;101962.59;5093558;27;46129;-73
2023/02/28 22:16:41;;;;;;;;;21.75;15.25;;;;;5.20;39.95;101966.06;5094387;27;45673;-75
2023/02/28 22:19:07;;;;;;;;;21.25;18.75;;;;;5.19;40.44;101987.75;5076101;27;48589;-75
2023/02/28 22:21:34;;;;;;;;;17.00;14.00;;;;;5.16;39.85;101977.44;5075053;27;48127;-76
2023/02/28 22:24:00;;;;;;;;;13.75;10.75;;;;;5.12;40.38;101983.63;5099352;27;45849;-79
2023/02/28 22:26:25;;;;;;;;;19.00;16.00;;;;;5.08;40.03;101981.09;5089033;27;46753;-78
2023/02/28 22:28:50;;;;;;;;;19.00;17.75;;;;;4.97;40.57;101969.28;5088288;27;46381;-77
2023/02/28 22:31:25;;;;;;;;;20.00;17.25;;;;;4.86;40.49;101961.75;5069404;27;47515;-78
2023/02/28 22:33:54;;;;;;;;;18.00;18.00;;;;;4.92;40.61;101978.94;5092972;27;45765;-76
2023/02/28 22:36:21;;;;;;;;;18.50;15.75;;;;;4.89;40.66;101972.09;5092732;27;46217;-76
2023/02/28 22:38:49;;;;;;;;;18.25;15.25;;;;;4.88;40.44;101978.16;5093024;27;46962;-77
2023/02/28 22:41:16;;;;;;;;;25.25;20.00;;;;;4.88;41.03;101982.50;5091528;27;47052;-77
2023/02/28 22:43:42;;;;;;;;;13.00;13.00;;;;;4.84;40.97;101975.69;5093724;27;45558;-78
2023/02/28 22:46:11;;;;;;;;;13.75;12.50;;;;;4.84;40.91;101978.28;5091019;27;46169;-77
2023/02/28 22:48:36;;;;;;;;;16.50;15.25;;;;;4.74;40.86;101963.84;5093811;27;46642;-79
2023/02/28 22:51:10;;;;;;;;;15.00;12.25;;;;;4.79;40.95;101974.94;5091134;27;46277;-75
2023/02/28 22:53:36;;;;;;;;;12.00;9.75;;;;;4.76;40.92;101982.78;5095963;27;45794;-77
2023/02/28 22:56:02;;;;;;;;;16.25;13.75;;;;;4.70;40.98;101972.59;5092499;27;45563;-76
2023/02/28 22:58:28;;;;;;;;;22.75;14.00;;;;;4.72;41.50;101981.19;5090396;27;46324;-77
2023/02/28 23:00:53;;;;;;;;;23.00;17.50;;;;;4.55;41.48;101950.44;5089968;27;46209;-77
2023/02/28 23:03:25;;;;;;;;;19.50;17.00;;;;;4.65;41.61;101978.72;5094026;27;45592;-79
2023/02/28 23:05:52;;;;;;;;;18.50;16.50;;;;;4.53;41.59;101958.28;5075793;27;45767;-78
2023/02/28 23:08:21;;;;;;;;;13.00;12.25;;;;;4.52;41.21;101955.72;5093822;27;47788;-79
2023/02/28 23:10:48;;;;;;;;;16.00;15.50;;;;;4.58;41.39;101971.16;5086986;27;46407;-78
2023/02/28 23:13:13;;;;;;;;;19.00;14.50;;;;;4.57;41.61;101982.41;5098433;27;46209;-77
2023/02/28 23:15:39;;;;;;;;;15.00;13.00;;;;;4.56;41.55;101983.28;5094000;27;45665;-77
2023/02/28 23:18:05;;;;;;;;;23.00;13.75;;;;;4.55;41.71;101984.19;5081839;27;48481;-76
2023/02/28 23:20:32;;;;;;;;;20.00;17.25;;;;;4.52;41.62;101971.28;5091418;27;46889;-75
2023/02/28 23:22:57;;;;;;;;;17.00;17.00;;;;;4.37;41.77;101940.53;5086924;27;45727;-77
2023/02/28 23:25:23;;;;;;;;;15.50;14.75;;;;;4.45;41.64;101959.34;5094200;27;46211;-77
2023/02/28 23:27:48;;;;;;;;;18.25;15.00;;;;;4.49;41.71;101974.81;5094631;27;45763;-76
2023/02/28 23:30:14;;;;;;;;;18.75;15.75;;;;;4.46;41.97;101969.69;5085815;27;46196;-78
2023/02/28 23:32:40;;;;;;;;;17.75;14.50;;;;;4.48;41.76;101965.31;5078456;27;45604;-76
2023/02/28 23:35:07;;;;;;;;;16.50;14.75;;;;;4.44;41.79;101961.09;5093598;27;45632;-76
2023/02/28 23:37:34;;;;;;;;;15.50;13.75;;;;;4.46;41.72;101966.25;5093536;27;45770;-77
2023/02/28 23:39:59;;;;;;;;;15.25;14.00;;;;;4.45;41.67;101960.22;5093745;27;46548;-77
2023/02/28 23:42:25;;;;;;;;;13.00;12.00;;;;;4.42;41.99;101960.28;5092232;27;45880;-78
2023/02/28 23:44:50;;;;;;;;;14.50;12.00;;;;;4.32;41.99;101937.19;5093462;27;45738;-78
2023/02/28 23:47:16;;;;;;;;;14.00;13.75;;;;;4.45;41.82;101957.59;5075261;27;45659;-77
2023/02/28 23:49:42;;;;;;;;;15.75;13.00;;;;;4.42;42.32;101955.09;5093699;27;46255;-77
2023/02/28 23:52:08;;;;;;;;;14.00;12.50;;;;;4.28;42.10;101928.63;5091293;27;46350;-77
2023/02/28 23:54:34;;;;;;;;;13.25;12.50;;;;;4.45;42.02;101956.75;5090509;27;45856;-77
2023/02/28 23:56:59;;;;;;;;;15.50;13.25;;;;;4.43;42.20;101954.19;5093609;27;46556;-77
2023/02/28 23:59:24;;;;;;;;;14.00;13.00;;;;;4.39;42.20;101951.72;5092187;27;47170;-75
